Terminal Aerodrome Forecast
Issued by NWS

Home | Current Version | Previous Version | Text Only | Print | Product List | Glossary On
Versions: 1 2 3 4 5 6 7 8 9 10 11 12 13
000
FTUS42 TJSJ 231131
TAFJPS
TAF
TJPS 231131Z 2312/2412 05005KT P6SM FEW030
     FM231400 14010G20KT P6SM VCSH FEW030 SCT060
     FM232330 08007KT P6SM FEW040
      AMD NOT SKED TIL 240300=

USA.gov is the U.S. government's official web portal to all federal, state and local government web resources and services.